sensor_id;sensor_type;location;lat;lon;timestamp;P1;durP1;ratioP1;P2;durP2;ratioP2
52248;SDS011;38541;48.130;8.378;2023-04-03T00:00:34;2.75;;;2.55;;
52248;SDS011;38541;48.130;8.378;2023-04-03T00:03:01;2.97;;;2.78;;
52248;SDS011;38541;48.130;8.378;2023-04-03T00:05:28;2.92;;;2.72;;
52248;SDS011;38541;48.130;8.378;2023-04-03T00:07:54;3.13;;;2.83;;
52248;SDS011;38541;48.130;8.378;2023-04-03T00:10:21;3.15;;;2.95;;
52248;SDS011;38541;48.130;8.378;2023-04-03T00:12:47;3.10;;;2.90;;
52248;SDS011;38541;48.130;8.378;2023-04-03T00:15:14;3.20;;;2.97;;
52248;SDS011;38541;48.130;8.378;2023-04-03T00:17:41;3.22;;;2.95;;
52248;SDS011;38541;48.130;8.378;2023-04-03T00:20:07;3.30;;;3.00;;
52248;SDS011;38541;48.130;8.378;2023-04-03T00:22:34;2.85;;;2.65;;
52248;SDS011;38541;48.130;8.378;2023-04-03T00:25:01;2.95;;;2.60;;
52248;SDS011;38541;48.130;8.378;2023-04-03T00:27:27;3.25;;;2.97;;
52248;SDS011;38541;48.130;8.378;2023-04-03T00:29:54;2.70;;;2.50;;
52248;SDS011;38541;48.130;8.378;2023-04-03T00:32:20;3.15;;;2.95;;
52248;SDS011;38541;48.130;8.378;2023-04-03T00:34:47;54.47;;;5.22;;
52248;SDS011;38541;48.130;8.378;2023-04-03T00:37:14;3.03;;;2.83;;
52248;SDS011;38541;48.130;8.378;2023-04-03T00:39:41;3.40;;;3.10;;
52248;SDS011;38541;48.130;8.378;2023-04-03T00:42:07;3.00;;;2.80;;
52248;SDS011;38541;48.130;8.378;2023-04-03T00:47:01;3.60;;;3.30;;
52248;SDS011;38541;48.130;8.378;2023-04-03T00:49:29;3.45;;;3.08;;
52248;SDS011;38541;48.130;8.378;2023-04-03T00:51:56;3.15;;;2.92;;
52248;SDS011;38541;48.130;8.378;2023-04-03T00:54:24;3.47;;;3.22;;
52248;SDS011;38541;48.130;8.378;2023-04-03T00:56:52;2.97;;;2.78;;
52248;SDS011;38541;48.130;8.378;2023-04-03T00:59:23;3.13;;;2.83;;
52248;SDS011;38541;48.130;8.378;2023-04-03T01:01:53;2.85;;;2.65;;
52248;SDS011;38541;48.130;8.378;2023-04-03T01:04:35;2.80;;;2.60;;
52248;SDS011;38541;48.130;8.378;2023-04-03T01:07:04;2.90;;;2.70;;
52248;SDS011;38541;48.130;8.378;2023-04-03T01:09:34;2.72;;;2.53;;
52248;SDS011;38541;48.130;8.378;2023-04-03T01:14:40;3.00;;;2.80;;
52248;SDS011;38541;48.130;8.378;2023-04-03T01:20:55;2.92;;;2.72;;
52248;SDS011;38541;48.130;8.378;2023-04-03T01:28:06;2.75;;;2.55;;
52248;SDS011;38541;48.130;8.378;2023-04-03T01:30:35;2.63;;;2.45;;
52248;SDS011;38541;48.130;8.378;2023-04-03T01:33:09;3.40;;;3.10;;
52248;SDS011;38541;48.130;8.378;2023-04-03T01:35:35;2.78;;;2.58;;
52248;SDS011;38541;48.130;8.378;2023-04-03T01:38:02;2.50;;;2.30;;
52248;SDS011;38541;48.130;8.378;2023-04-03T01:40:28;2.70;;;2.50;;
52248;SDS011;38541;48.130;8.378;2023-04-03T01:42:55;2.83;;;2.63;;
52248;SDS011;38541;48.130;8.378;2023-04-03T01:45:22;3.00;;;2.80;;
52248;SDS011;38541;48.130;8.378;2023-04-03T01:47:48;2.22;;;2.13;;
52248;SDS011;38541;48.130;8.378;2023-04-03T01:50:15;2.47;;;2.38;;
52248;SDS011;38541;48.130;8.378;2023-04-03T01:52:42;2.53;;;2.33;;
52248;SDS011;38541;48.130;8.378;2023-04-03T01:55:08;2.95;;;2.60;;
52248;SDS011;38541;48.130;8.378;2023-04-03T01:57:35;2.83;;;2.63;;
52248;SDS011;38541;48.130;8.378;2023-04-03T02:00:02;2.70;;;2.50;;
52248;SDS011;38541;48.130;8.378;2023-04-03T02:02:38;2.67;;;2.47;;
52248;SDS011;38541;48.130;8.378;2023-04-03T02:05:05;2.92;;;2.72;;
52248;SDS011;38541;48.130;8.378;2023-04-03T02:07:32;2.42;;;2.33;;
52248;SDS011;38541;48.130;8.378;2023-04-03T02:09:58;2.38;;;2.20;;
52248;SDS011;38541;48.130;8.378;2023-04-03T02:12:25;2.67;;;2.47;;
52248;SDS011;38541;48.130;8.378;2023-04-03T02:14:52;2.72;;;2.53;;
52248;SDS011;38541;48.130;8.378;2023-04-03T02:17:18;2.80;;;2.60;;
52248;SDS011;38541;48.130;8.378;2023-04-03T02:19:46;2.20;;;2.10;;
52248;SDS011;38541;48.130;8.378;2023-04-03T02:22:12;2.60;;;2.40;;
52248;SDS011;38541;48.130;8.378;2023-04-03T02:24:39;2.45;;;2.25;;
52248;SDS011;38541;48.130;8.378;2023-04-03T02:27:06;2.60;;;2.50;;
52248;SDS011;38541;48.130;8.378;2023-04-03T02:29:33;2.85;;;2.65;;
52248;SDS011;38541;48.130;8.378;2023-04-03T02:31:59;3.25;;;2.95;;
52248;SDS011;38541;48.130;8.378;2023-04-03T02:34:26;3.25;;;3.05;;
52248;SDS011;38541;48.130;8.378;2023-04-03T02:36:53;2.58;;;2.35;;
52248;SDS011;38541;48.130;8.378;2023-04-03T02:39:20;2.80;;;2.65;;
52248;SDS011;38541;48.130;8.378;2023-04-03T02:41:47;3.00;;;2.80;;
52248;SDS011;38541;48.130;8.378;2023-04-03T02:44:18;2.95;;;2.75;;
52248;SDS011;38541;48.130;8.378;2023-04-03T02:46:45;3.25;;;2.95;;
52248;SDS011;38541;48.130;8.378;2023-04-03T02:49:11;3.22;;;3.00;;
52248;SDS011;38541;48.130;8.378;2023-04-03T02:51:38;2.95;;;2.75;;
52248;SDS011;38541;48.130;8.378;2023-04-03T02:54:05;3.22;;;2.92;;
52248;SDS011;38541;48.130;8.378;2023-04-03T02:56:34;2.80;;;2.60;;
52248;SDS011;38541;48.130;8.378;2023-04-03T02:59:01;2.90;;;2.70;;
52248;SDS011;38541;48.130;8.378;2023-04-03T03:01:28;3.47;;;3.20;;
52248;SDS011;38541;48.130;8.378;2023-04-03T03:04:00;3.33;;;3.08;;
52248;SDS011;38541;48.130;8.378;2023-04-03T03:06:27;3.28;;;3.05;;
52248;SDS011;38541;48.130;8.378;2023-04-03T03:08:54;3.42;;;3.13;;
52248;SDS011;38541;48.130;8.378;2023-04-03T03:11:20;3.75;;;3.45;;
52248;SDS011;38541;48.130;8.378;2023-04-03T03:13:47;3.22;;;3.03;;
52248;SDS011;38541;48.130;8.378;2023-04-03T03:16:14;3.08;;;2.88;;
52248;SDS011;38541;48.130;8.378;2023-04-03T03:18:41;2.97;;;2.78;;
52248;SDS011;38541;48.130;8.378;2023-04-03T03:21:08;3.28;;;2.97;;
52248;SDS011;38541;48.130;8.378;2023-04-03T03:23:35;3.55;;;3.22;;
52248;SDS011;38541;48.130;8.378;2023-04-03T03:26:04;2.97;;;2.78;;
52248;SDS011;38541;48.130;8.378;2023-04-03T03:28:33;3.75;;;3.45;;
52248;SDS011;38541;48.130;8.378;2023-04-03T03:31:00;3.50;;;3.20;;
52248;SDS011;38541;48.130;8.378;2023-04-03T03:33:29;4.38;;;3.97;;
52248;SDS011;38541;48.130;8.378;2023-04-03T03:35:56;3.97;;;3.67;;
52248;SDS011;38541;48.130;8.378;2023-04-03T03:38:23;3.90;;;3.60;;
52248;SDS011;38541;48.130;8.378;2023-04-03T03:40:50;3.83;;;3.53;;
52248;SDS011;38541;48.130;8.378;2023-04-03T03:43:19;4.45;;;4.05;;
52248;SDS011;38541;48.130;8.378;2023-04-03T03:45:51;3.97;;;3.63;;
52248;SDS011;38541;48.130;8.378;2023-04-03T03:48:19;4.07;;;3.67;;
52248;SDS011;38541;48.130;8.378;2023-04-03T03:50:47;4.65;;;4.25;;
52248;SDS011;38541;48.130;8.378;2023-04-03T03:53:15;3.47;;;3.17;;
52248;SDS011;38541;48.130;8.378;2023-04-03T03:55:42;4.18;;;3.78;;
52248;SDS011;38541;48.130;8.378;2023-04-03T03:58:09;3.92;;;3.63;;
52248;SDS011;38541;48.130;8.378;2023-04-03T04:00:36;4.03;;;3.72;;
52248;SDS011;38541;48.130;8.378;2023-04-03T04:03:03;4.18;;;3.83;;
52248;SDS011;38541;48.130;8.378;2023-04-03T04:05:30;3.80;;;3.55;;
52248;SDS011;38541;48.130;8.378;2023-04-03T04:07:59;5.20;;;4.70;;
52248;SDS011;38541;48.130;8.378;2023-04-03T04:10:26;4.72;;;4.30;;
52248;SDS011;38541;48.130;8.378;2023-04-03T04:12:53;4.50;;;4.10;;
52248;SDS011;38541;48.130;8.378;2023-04-03T04:15:24;4.72;;;4.32;;
52248;SDS011;38541;48.130;8.378;2023-04-03T04:17:52;5.55;;;5.05;;
52248;SDS011;38541;48.130;8.378;2023-04-03T04:20:20;5.97;;;5.38;;
52248;SDS011;38541;48.130;8.378;2023-04-03T04:22:47;5.40;;;4.90;;
52248;SDS011;38541;48.130;8.378;2023-04-03T04:25:15;5.10;;;4.70;;
52248;SDS011;38541;48.130;8.378;2023-04-03T04:27:42;5.05;;;4.60;;
52248;SDS011;38541;48.130;8.378;2023-04-03T04:30:10;5.22;;;4.50;;
52248;SDS011;38541;48.130;8.378;2023-04-03T04:32:37;5.22;;;4.82;;
52248;SDS011;38541;48.130;8.378;2023-04-03T04:35:04;6.72;;;5.15;;
52248;SDS011;38541;48.130;8.378;2023-04-03T04:37:33;5.32;;;4.70;;
52248;SDS011;38541;48.130;8.378;2023-04-03T04:40:00;5.65;;;4.65;;
52248;SDS011;38541;48.130;8.378;2023-04-03T04:42:27;4.72;;;4.32;;
52248;SDS011;38541;48.130;8.378;2023-04-03T04:44:54;6.85;;;5.30;;
52248;SDS011;38541;48.130;8.378;2023-04-03T04:47:20;4.65;;;4.25;;
52248;SDS011;38541;48.130;8.378;2023-04-03T04:49:47;5.28;;;4.63;;
52248;SDS011;38541;48.130;8.378;2023-04-03T04:52:14;4.88;;;4.47;;
52248;SDS011;38541;48.130;8.378;2023-04-03T04:54:41;5.20;;;4.75;;
52248;SDS011;38541;48.130;8.378;2023-04-03T04:57:08;5.05;;;4.55;;
52248;SDS011;38541;48.130;8.378;2023-04-03T04:59:35;5.45;;;4.50;;
52248;SDS011;38541;48.130;8.378;2023-04-03T05:02:02;5.43;;;4.93;;
52248;SDS011;38541;48.130;8.378;2023-04-03T05:04:29;5.10;;;4.70;;
52248;SDS011;38541;48.130;8.378;2023-04-03T05:07:02;5.60;;;5.10;;
52248;SDS011;38541;48.130;8.378;2023-04-03T05:09:32;6.18;;;4.40;;
52248;SDS011;38541;48.130;8.378;2023-04-03T05:11:59;5.18;;;4.40;;
52248;SDS011;38541;48.130;8.378;2023-04-03T05:14:30;4.97;;;4.50;;
52248;SDS011;38541;48.130;8.378;2023-04-03T05:17:02;5.30;;;4.80;;
52248;SDS011;38541;48.130;8.378;2023-04-03T05:19:32;5.57;;;5.07;;
52248;SDS011;38541;48.130;8.378;2023-04-03T05:21:59;5.25;;;4.75;;
52248;SDS011;38541;48.130;8.378;2023-04-03T05:24:28;5.13;;;4.63;;
52248;SDS011;38541;48.130;8.378;2023-04-03T05:26:54;5.57;;;5.18;;
52248;SDS011;38541;48.130;8.378;2023-04-03T05:29:21;4.63;;;4.22;;
52248;SDS011;38541;48.130;8.378;2023-04-03T05:31:49;5.50;;;5.00;;
52248;SDS011;38541;48.130;8.378;2023-04-03T05:34:16;5.60;;;5.07;;
52248;SDS011;38541;48.130;8.378;2023-04-03T05:36:45;6.50;;;5.15;;
52248;SDS011;38541;48.130;8.378;2023-04-03T05:39:14;5.53;;;5.03;;
52248;SDS011;38541;48.130;8.378;2023-04-03T05:41:42;5.32;;;4.82;;
52248;SDS011;38541;48.130;8.378;2023-04-03T05:44:09;5.00;;;4.60;;
52248;SDS011;38541;48.130;8.378;2023-04-03T05:46:35;4.95;;;4.50;;
52248;SDS011;38541;48.130;8.378;2023-04-03T05:49:05;5.75;;;5.25;;
52248;SDS011;38541;48.130;8.378;2023-04-03T05:51:35;5.05;;;4.47;;
52248;SDS011;38541;48.130;8.378;2023-04-03T05:54:17;5.22;;;4.72;;
52248;SDS011;38541;48.130;8.378;2023-04-03T05:56:51;4.97;;;4.45;;
52248;SDS011;38541;48.130;8.378;2023-04-03T05:59:19;4.93;;;4.00;;
52248;SDS011;38541;48.130;8.378;2023-04-03T06:01:49;4.47;;;4.07;;
52248;SDS011;38541;48.130;8.378;2023-04-03T06:04:16;5.03;;;4.53;;
52248;SDS011;38541;48.130;8.378;2023-04-03T06:06:55;4.55;;;4.10;;
52248;SDS011;38541;48.130;8.378;2023-04-03T06:09:26;4.90;;;4.45;;
52248;SDS011;38541;48.130;8.378;2023-04-03T06:11:55;4.50;;;4.10;;
52248;SDS011;38541;48.130;8.378;2023-04-03T06:14:23;4.88;;;4.40;;
52248;SDS011;38541;48.130;8.378;2023-04-03T06:16:49;4.80;;;4.40;;
52248;SDS011;38541;48.130;8.378;2023-04-03T06:19:16;5.13;;;4.63;;
52248;SDS011;38541;48.130;8.378;2023-04-03T06:21:47;5.30;;;4.80;;
52248;SDS011;38541;48.130;8.378;2023-04-03T06:24:15;5.35;;;4.85;;
52248;SDS011;38541;48.130;8.378;2023-04-03T06:26:42;5.45;;;4.95;;
52248;SDS011;38541;48.130;8.378;2023-04-03T06:29:09;4.70;;;4.20;;
52248;SDS011;38541;48.130;8.378;2023-04-03T06:31:36;4.80;;;3.85;;
52248;SDS011;38541;48.130;8.378;2023-04-03T06:34:03;4.38;;;3.97;;
52248;SDS011;38541;48.130;8.378;2023-04-03T06:36:33;4.47;;;4.07;;
52248;SDS011;38541;48.130;8.378;2023-04-03T06:38:59;4.38;;;4.07;;
52248;SDS011;38541;48.130;8.378;2023-04-03T06:41:26;4.50;;;4.10;;
52248;SDS011;38541;48.130;8.378;2023-04-03T06:43:52;4.38;;;3.97;;
52248;SDS011;38541;48.130;8.378;2023-04-03T06:46:20;4.50;;;4.10;;
52248;SDS011;38541;48.130;8.378;2023-04-03T06:48:48;4.30;;;3.92;;
52248;SDS011;38541;48.130;8.378;2023-04-03T06:51:22;4.43;;;4.03;;
52248;SDS011;38541;48.130;8.378;2023-04-03T06:53:51;4.00;;;3.70;;
52248;SDS011;38541;48.130;8.378;2023-04-03T06:56:18;4.05;;;3.65;;
52248;SDS011;38541;48.130;8.378;2023-04-03T06:58:45;4.25;;;3.85;;
52248;SDS011;38541;48.130;8.378;2023-04-03T07:01:15;4.00;;;3.70;;
52248;SDS011;38541;48.130;8.378;2023-04-03T07:03:42;4.13;;;3.83;;
52248;SDS011;38541;48.130;8.378;2023-04-03T07:06:10;4.40;;;4.00;;
52248;SDS011;38541;48.130;8.378;2023-04-03T07:08:38;4.70;;;4.20;;
52248;SDS011;38541;48.130;8.378;2023-04-03T07:11:06;4.20;;;3.80;;
52248;SDS011;38541;48.130;8.378;2023-04-03T07:13:32;4.55;;;4.15;;
52248;SDS011;38541;48.130;8.378;2023-04-03T07:15:59;4.32;;;3.92;;
52248;SDS011;38541;48.130;8.378;2023-04-03T07:18:26;4.22;;;3.83;;
52248;SDS011;38541;48.130;8.378;2023-04-03T07:20:53;4.45;;;3.97;;
52248;SDS011;38541;48.130;8.378;2023-04-03T07:23:19;4.35;;;3.95;;
52248;SDS011;38541;48.130;8.378;2023-04-03T07:25:46;4.22;;;3.85;;
52248;SDS011;38541;48.130;8.378;2023-04-03T07:28:14;4.55;;;4.15;;
52248;SDS011;38541;48.130;8.378;2023-04-03T07:30:45;4.50;;;4.10;;
52248;SDS011;38541;48.130;8.378;2023-04-03T07:33:16;3.83;;;3.53;;
52248;SDS011;38541;48.130;8.378;2023-04-03T07:35:44;4.28;;;3.83;;
52248;SDS011;38541;48.130;8.378;2023-04-03T07:38:11;4.13;;;3.72;;
52248;SDS011;38541;48.130;8.378;2023-04-03T07:40:38;4.70;;;4.28;;
52248;SDS011;38541;48.130;8.378;2023-04-03T07:43:05;4.70;;;4.30;;
52248;SDS011;38541;48.130;8.378;2023-04-03T07:45:34;6.65;;;3.92;;
52248;SDS011;38541;48.130;8.378;2023-04-03T07:48:02;4.10;;;3.80;;
52248;SDS011;38541;48.130;8.378;2023-04-03T07:50:28;4.38;;;3.97;;
52248;SDS011;38541;48.130;8.378;2023-04-03T07:52:56;4.00;;;3.45;;
52248;SDS011;38541;48.130;8.378;2023-04-03T07:55:24;3.83;;;3.53;;
52248;SDS011;38541;48.130;8.378;2023-04-03T07:57:51;4.43;;;4.03;;
52248;SDS011;38541;48.130;8.378;2023-04-03T08:00:17;3.53;;;3.22;;
52248;SDS011;38541;48.130;8.378;2023-04-03T08:02:45;4.25;;;3.45;;
52248;SDS011;38541;48.130;8.378;2023-04-03T08:05:18;3.45;;;3.15;;
52248;SDS011;38541;48.130;8.378;2023-04-03T08:07:45;3.50;;;3.20;;
52248;SDS011;38541;48.130;8.378;2023-04-03T08:10:11;3.83;;;3.53;;
52248;SDS011;38541;48.130;8.378;2023-04-03T08:12:38;3.60;;;3.38;;
52248;SDS011;38541;48.130;8.378;2023-04-03T08:15:05;3.90;;;3.50;;
52248;SDS011;38541;48.130;8.378;2023-04-03T08:17:33;3.80;;;3.50;;
52248;SDS011;38541;48.130;8.378;2023-04-03T08:19:59;4.28;;;3.65;;
52248;SDS011;38541;48.130;8.378;2023-04-03T08:22:26;3.60;;;3.30;;
52248;SDS011;38541;48.130;8.378;2023-04-03T08:24:53;3.75;;;3.42;;
52248;SDS011;38541;48.130;8.378;2023-04-03T08:27:24;3.95;;;3.53;;
52248;SDS011;38541;48.130;8.378;2023-04-03T08:29:52;4.22;;;3.53;;
52248;SDS011;38541;48.130;8.378;2023-04-03T08:32:19;3.50;;;3.20;;
52248;SDS011;38541;48.130;8.378;2023-04-03T08:34:45;3.58;;;3.28;;
52248;SDS011;38541;48.130;8.378;2023-04-03T08:37:12;3.00;;;2.75;;
52248;SDS011;38541;48.130;8.378;2023-04-03T08:39:38;2.90;;;2.60;;
52248;SDS011;38541;48.130;8.378;2023-04-03T08:42:07;2.50;;;2.15;;
52248;SDS011;38541;48.130;8.378;2023-04-03T08:44:51;2.88;;;2.67;;
52248;SDS011;38541;48.130;8.378;2023-04-03T08:50:42;2.50;;;2.30;;
52248;SDS011;38541;48.130;8.378;2023-04-03T08:53:16;2.72;;;2.53;;
52248;SDS011;38541;48.130;8.378;2023-04-03T08:55:46;4.88;;;4.30;;
52248;SDS011;38541;48.130;8.378;2023-04-03T08:58:15;4.07;;;3.20;;
52248;SDS011;38541;48.130;8.378;2023-04-03T09:01:03;5.93;;;5.32;;
52248;SDS011;38541;48.130;8.378;2023-04-03T09:03:38;4.25;;;3.30;;
52248;SDS011;38541;48.130;8.378;2023-04-03T09:06:13;2.35;;;2.22;;
52248;SDS011;38541;48.130;8.378;2023-04-03T09:12:03;3.10;;;2.80;;
52248;SDS011;38541;48.130;8.378;2023-04-03T09:14:38;2.83;;;2.60;;
52248;SDS011;38541;48.130;8.378;2023-04-03T09:20:30;2.13;;;2.00;;
52248;SDS011;38541;48.130;8.378;2023-04-03T09:26:08;2.20;;;2.03;;
52248;SDS011;38541;48.130;8.378;2023-04-03T09:28:41;2.58;;;2.38;;
52248;SDS011;38541;48.130;8.378;2023-04-03T09:31:20;3.15;;;2.85;;
52248;SDS011;38541;48.130;8.378;2023-04-03T09:33:56;4.57;;;4.05;;
52248;SDS011;38541;48.130;8.378;2023-04-03T09:36:41;2.80;;;2.60;;
52248;SDS011;38541;48.130;8.378;2023-04-03T09:39:18;2.75;;;2.55;;
52248;SDS011;38541;48.130;8.378;2023-04-03T09:42:00;2.38;;;2.17;;
52248;SDS011;38541;48.130;8.378;2023-04-03T09:46:57;2.60;;;2.40;;
52248;SDS011;38541;48.130;8.378;2023-04-03T09:49:23;3.40;;;2.90;;
52248;SDS011;38541;48.130;8.378;2023-04-03T09:51:50;2.80;;;2.60;;
52248;SDS011;38541;48.130;8.378;2023-04-03T09:54:36;2.30;;;2.20;;
52248;SDS011;38541;48.130;8.378;2023-04-03T09:57:11;3.10;;;2.80;;
52248;SDS011;38541;48.130;8.378;2023-04-03T09:59:46;3.83;;;3.53;;
52248;SDS011;38541;48.130;8.378;2023-04-03T10:02:34;2.50;;;2.30;;
52248;SDS011;38541;48.130;8.378;2023-04-03T10:05:05;2.22;;;2.10;;
52248;SDS011;38541;48.130;8.378;2023-04-03T10:08:06;3.45;;;2.58;;
52248;SDS011;38541;48.130;8.378;2023-04-03T10:10:46;2.60;;;2.40;;
52248;SDS011;38541;48.130;8.378;2023-04-03T10:13:18;2.97;;;2.78;;
52248;SDS011;38541;48.130;8.378;2023-04-03T10:15:51;3.13;;;2.83;;
52248;SDS011;38541;48.130;8.378;2023-04-03T10:18:26;2.70;;;2.50;;
52248;SDS011;38541;48.130;8.378;2023-04-03T10:20:57;4.20;;;2.40;;
52248;SDS011;38541;48.130;8.378;2023-04-03T10:23:41;3.33;;;3.03;;
52248;SDS011;38541;48.130;8.378;2023-04-03T10:31:31;2.72;;;2.42;;
52248;SDS011;38541;48.130;8.378;2023-04-03T10:34:16;3.10;;;2.80;;
52248;SDS011;38541;48.130;8.378;2023-04-03T10:39:44;3.08;;;2.78;;
52248;SDS011;38541;48.130;8.378;2023-04-03T10:42:26;2.70;;;2.50;;
52248;SDS011;38541;48.130;8.378;2023-04-03T10:53:31;2.37;;;2.17;;
52248;SDS011;38541;48.130;8.378;2023-04-03T10:56:22;3.30;;;3.00;;
52248;SDS011;38541;48.130;8.378;2023-04-03T10:59:15;2.75;;;2.45;;
52248;SDS011;38541;48.130;8.378;2023-04-03T11:01:45;3.35;;;2.28;;
52248;SDS011;38541;48.130;8.378;2023-04-03T11:04:16;3.13;;;2.88;;
52248;SDS011;38541;48.130;8.378;2023-04-03T11:06:47;2.95;;;2.70;;
52248;SDS011;38541;48.130;8.378;2023-04-03T11:09:32;2.67;;;2.47;;
52248;SDS011;38541;48.130;8.378;2023-04-03T11:12:05;2.20;;;2.00;;
52248;SDS011;38541;48.130;8.378;2023-04-03T11:14:35;3.33;;;3.00;;
52248;SDS011;38541;48.130;8.378;2023-04-03T11:19:46;2.88;;;2.67;;
52248;SDS011;38541;48.130;8.378;2023-04-03T11:25:02;2.65;;;2.42;;
52248;SDS011;38541;48.130;8.378;2023-04-03T11:27:54;2.58;;;2.38;;
52248;SDS011;38541;48.130;8.378;2023-04-03T11:39:00;2.80;;;2.60;;
52248;SDS011;38541;48.130;8.378;2023-04-03T11:41:33;3.05;;;2.85;;
52248;SDS011;38541;48.130;8.378;2023-04-03T11:44:04;4.72;;;2.53;;
52248;SDS011;38541;48.130;8.378;2023-04-03T11:46:56;3.50;;;3.20;;
52248;SDS011;38541;48.130;8.378;2023-04-03T12:16:50;3.47;;;3.17;;
52248;SDS011;38541;48.130;8.378;2023-04-03T12:34:58;2.72;;;2.50;;
52248;SDS011;38541;48.130;8.378;2023-04-03T12:37:44;4.57;;;4.10;;
52248;SDS011;38541;48.130;8.378;2023-04-03T12:48:32;2.95;;;2.22;;
52248;SDS011;38541;48.130;8.378;2023-04-03T12:51:04;3.55;;;2.33;;
52248;SDS011;38541;48.130;8.378;2023-04-03T12:53:32;2.90;;;2.70;;
52248;SDS011;38541;48.130;8.378;2023-04-03T12:58:49;2.67;;;2.47;;
52248;SDS011;38541;48.130;8.378;2023-04-03T13:01:18;3.90;;;2.35;;
52248;SDS011;38541;48.130;8.378;2023-04-03T13:03:53;2.80;;;2.60;;
52248;SDS011;38541;48.130;8.378;2023-04-03T13:06:27;2.50;;;2.30;;
52248;SDS011;38541;48.130;8.378;2023-04-03T13:08:58;3.22;;;2.35;;
52248;SDS011;38541;48.130;8.378;2023-04-03T13:11:31;2.40;;;2.30;;
52248;SDS011;38541;48.130;8.378;2023-04-03T13:14:03;3.90;;;2.80;;
52248;SDS011;38541;48.130;8.378;2023-04-03T13:16:40;3.15;;;2.60;;
52248;SDS011;38541;48.130;8.378;2023-04-03T13:19:15;2.25;;;2.15;;
52248;SDS011;38541;48.130;8.378;2023-04-03T13:21:43;2.60;;;2.40;;
52248;SDS011;38541;48.130;8.378;2023-04-03T13:24:10;3.17;;;2.35;;
52248;SDS011;38541;48.130;8.378;2023-04-03T13:26:41;2.60;;;2.40;;
52248;SDS011;38541;48.130;8.378;2023-04-03T13:29:19;3.13;;;2.83;;
52248;SDS011;38541;48.130;8.378;2023-04-03T13:31:56;2.42;;;2.22;;
52248;SDS011;38541;48.130;8.378;2023-04-03T13:34:25;2.38;;;2.20;;
52248;SDS011;38541;48.130;8.378;2023-04-03T13:39:26;2.75;;;2.55;;
52248;SDS011;38541;48.130;8.378;2023-04-03T13:41:59;2.70;;;2.38;;
52248;SDS011;38541;48.130;8.378;2023-04-03T13:44:29;2.28;;;2.17;;
52248;SDS011;38541;48.130;8.378;2023-04-03T13:47:14;2.95;;;2.65;;
52248;SDS011;38541;48.130;8.378;2023-04-03T13:49:59;3.13;;;2.75;;
52248;SDS011;38541;48.130;8.378;2023-04-03T13:52:29;2.65;;;2.45;;
52248;SDS011;38541;48.130;8.378;2023-04-03T13:54:59;3.33;;;3.03;;
52248;SDS011;38541;48.130;8.378;2023-04-03T13:57:31;2.97;;;2.63;;
52248;SDS011;38541;48.130;8.378;2023-04-03T13:59:57;2.55;;;2.25;;
52248;SDS011;38541;48.130;8.378;2023-04-03T14:02:31;2.97;;;2.47;;
52248;SDS011;38541;48.130;8.378;2023-04-03T14:05:00;2.38;;;2.17;;
52248;SDS011;38541;48.130;8.378;2023-04-03T14:07:29;3.17;;;2.60;;
52248;SDS011;38541;48.130;8.378;2023-04-03T14:09:57;2.45;;;2.25;;
52248;SDS011;38541;48.130;8.378;2023-04-03T14:14:58;3.50;;;3.00;;
52248;SDS011;38541;48.130;8.378;2023-04-03T14:17:27;7.05;;;3.58;;
52248;SDS011;38541;48.130;8.378;2023-04-03T14:19:54;2.90;;;2.35;;
52248;SDS011;38541;48.130;8.378;2023-04-03T14:24:52;4.13;;;2.70;;
52248;SDS011;38541;48.130;8.378;2023-04-03T14:27:23;2.40;;;2.17;;
52248;SDS011;38541;48.130;8.378;2023-04-03T14:29:53;3.35;;;2.60;;
52248;SDS011;38541;48.130;8.378;2023-04-03T14:32:21;2.38;;;2.20;;
52248;SDS011;38541;48.130;8.378;2023-04-03T14:34:50;2.60;;;2.40;;
52248;SDS011;38541;48.130;8.378;2023-04-03T14:37:18;2.75;;;2.55;;
52248;SDS011;38541;48.130;8.378;2023-04-03T14:39:48;3.17;;;2.88;;
52248;SDS011;38541;48.130;8.378;2023-04-03T14:42:17;4.03;;;3.28;;
52248;SDS011;38541;48.130;8.378;2023-04-03T14:44:46;2.63;;;2.17;;
52248;SDS011;38541;48.130;8.378;2023-04-03T14:47:14;2.83;;;2.50;;
52248;SDS011;38541;48.130;8.378;2023-04-03T14:49:58;2.63;;;2.42;;
52248;SDS011;38541;48.130;8.378;2023-04-03T14:52:27;2.25;;;2.15;;
52248;SDS011;38541;48.130;8.378;2023-04-03T14:54:58;2.10;;;2.00;;
52248;SDS011;38541;48.130;8.378;2023-04-03T14:57:27;2.58;;;2.38;;
52248;SDS011;38541;48.130;8.378;2023-04-03T14:59:54;3.58;;;2.47;;
52248;SDS011;38541;48.130;8.378;2023-04-03T15:04:56;2.58;;;2.35;;
52248;SDS011;38541;48.130;8.378;2023-04-03T15:07:23;2.70;;;2.50;;
52248;SDS011;38541;48.130;8.378;2023-04-03T15:09:52;3.00;;;2.40;;
52248;SDS011;38541;48.130;8.378;2023-04-03T15:12:19;4.07;;;2.75;;
52248;SDS011;38541;48.130;8.378;2023-04-03T15:14:45;3.97;;;3.60;;
52248;SDS011;38541;48.130;8.378;2023-04-03T15:17:22;3.20;;;2.90;;
52248;SDS011;38541;48.130;8.378;2023-04-03T15:19:50;4.95;;;3.15;;
52248;SDS011;38541;48.130;8.378;2023-04-03T15:22:16;4.00;;;2.17;;
52248;SDS011;38541;48.130;8.378;2023-04-03T15:24:45;3.83;;;3.53;;
52248;SDS011;38541;48.130;8.378;2023-04-03T15:27:12;3.15;;;2.53;;
52248;SDS011;38541;48.130;8.378;2023-04-03T15:29:39;2.47;;;2.28;;
52248;SDS011;38541;48.130;8.378;2023-04-03T15:32:08;2.28;;;2.10;;
52248;SDS011;38541;48.130;8.378;2023-04-03T15:34:35;2.53;;;2.33;;
52248;SDS011;38541;48.130;8.378;2023-04-03T15:37:02;2.40;;;2.20;;
52248;SDS011;38541;48.130;8.378;2023-04-03T15:39:29;2.80;;;2.60;;
52248;SDS011;38541;48.130;8.378;2023-04-03T15:41:55;2.80;;;2.60;;
52248;SDS011;38541;48.130;8.378;2023-04-03T15:44:22;3.67;;;2.58;;
52248;SDS011;38541;48.130;8.378;2023-04-03T15:46:49;3.08;;;2.47;;
52248;SDS011;38541;48.130;8.378;2023-04-03T15:49:17;3.25;;;2.70;;
52248;SDS011;38541;48.130;8.378;2023-04-03T15:51:45;2.92;;;2.60;;
52248;SDS011;38541;48.130;8.378;2023-04-03T15:54:12;3.90;;;3.47;;
52248;SDS011;38541;48.130;8.378;2023-04-03T15:56:38;3.00;;;2.80;;
52248;SDS011;38541;48.130;8.378;2023-04-03T15:59:05;4.82;;;2.72;;
52248;SDS011;38541;48.130;8.378;2023-04-03T16:01:31;2.80;;;2.60;;
52248;SDS011;38541;48.130;8.378;2023-04-03T16:03:58;3.20;;;2.90;;
52248;SDS011;38541;48.130;8.378;2023-04-03T16:06:25;2.42;;;2.22;;
52248;SDS011;38541;48.130;8.378;2023-04-03T16:08:52;3.33;;;3.05;;
52248;SDS011;38541;48.130;8.378;2023-04-03T16:11:23;3.65;;;2.30;;
52248;SDS011;38541;48.130;8.378;2023-04-03T16:13:51;2.92;;;2.40;;
52248;SDS011;38541;48.130;8.378;2023-04-03T16:16:17;2.50;;;2.30;;
52248;SDS011;38541;48.130;8.378;2023-04-03T16:18:44;2.05;;;1.95;;
52248;SDS011;38541;48.130;8.378;2023-04-03T16:21:13;5.53;;;3.92;;
52248;SDS011;38541;48.130;8.378;2023-04-03T16:23:41;4.13;;;3.08;;
52248;SDS011;38541;48.130;8.378;2023-04-03T16:26:08;2.97;;;2.67;;
52248;SDS011;38541;48.130;8.378;2023-04-03T16:28:35;6.35;;;4.80;;
52248;SDS011;38541;48.130;8.378;2023-04-03T16:31:01;5.13;;;3.55;;
52248;SDS011;38541;48.130;8.378;2023-04-03T16:33:29;4.25;;;3.38;;
52248;SDS011;38541;48.130;8.378;2023-04-03T16:35:56;3.78;;;3.42;;
52248;SDS011;38541;48.130;8.378;2023-04-03T16:38:22;3.25;;;2.83;;
52248;SDS011;38541;48.130;8.378;2023-04-03T16:40:49;2.75;;;2.55;;
52248;SDS011;38541;48.130;8.378;2023-04-03T16:43:15;4.00;;;2.90;;
52248;SDS011;38541;48.130;8.378;2023-04-03T16:45:42;2.30;;;2.10;;
52248;SDS011;38541;48.130;8.378;2023-04-03T16:48:08;2.45;;;2.25;;
52248;SDS011;38541;48.130;8.378;2023-04-03T16:50:35;2.70;;;2.50;;
52248;SDS011;38541;48.130;8.378;2023-04-03T16:53:02;2.63;;;2.40;;
52248;SDS011;38541;48.130;8.378;2023-04-03T16:55:29;4.20;;;3.65;;
52248;SDS011;38541;48.130;8.378;2023-04-03T16:57:55;4.63;;;3.90;;
52248;SDS011;38541;48.130;8.378;2023-04-03T17:00:22;3.92;;;3.10;;
52248;SDS011;38541;48.130;8.378;2023-04-03T17:02:48;3.00;;;2.45;;
52248;SDS011;38541;48.130;8.378;2023-04-03T17:05:15;4.35;;;2.88;;